Time;durP1;ratioP1;P1;durP2;ratioP2;P2;SDS_P1;SDS_P2;PMS_P1;PMS_P2;Temp;Humidity;BMP_temperature;BMP_pressure;BME280_temperature;BME280_humidity;BME280_pressure;Samples;Min_cycle;Max_cycle;Signal;HPM_P1;HPM_P2
2022/09/04 00:02:47;;;;;;;0.93;0.85;;;;;;;15.57;77.06;99485.00;4469335;32;34160;-79
2022/09/04 00:05:24;;;;;;;0.20;0.20;;;;;;;15.82;76.83;99485.16;4456611;32;34129;-80
2022/09/04 00:08:19;;;;;;;1.75;0.68;;;;;;;16.33;74.17;99489.72;4469973;32;34923;-81
2022/09/04 00:11:17;;;;;;;1.15;1.05;;;;;;;16.45;73.19;99491.09;4470730;32;34508;-80
2022/09/04 00:13:52;;;;;;;0.60;0.55;;;;;;;16.11;75.34;99487.75;4443547;32;32165;-80
2022/09/04 00:16:35;;;;;;;0.28;0.28;;;;;;;16.01;76.43;99491.56;4457092;32;33821;-80
2022/09/04 00:19:25;;;;;;;0.30;0.30;;;;;;;16.11;75.82;99487.75;4469897;32;35026;-80
2022/09/04 00:21:59;;;;;;;0.90;0.88;;;;;;;15.43;79.65;99488.00;4469376;32;35107;-80
2022/09/04 00:24:58;;;;;;;0.47;0.47;;;;;;;15.75;79.70;99491.50;4456800;32;33907;-80
2022/09/04 00:27:30;;;;;;;1.17;1.10;;;;;;;15.91;78.07;99493.59;4402702;32;33867;-80
2022/09/04 00:30:05;;;;;;;0.62;0.62;;;;;;;15.48;81.75;99491.37;4456471;32;34898;-80
2022/09/04 00:32:40;;;;;;;0.50;0.50;;;;;;;15.82;80.14;99495.66;4469733;32;35378;-80
2022/09/04 00:35:14;;;;;;;1.48;1.37;;;;;;;16.33;79.06;99496.75;4456105;32;33445;-80
2022/09/04 00:37:49;;;;;;;0.57;0.57;;;;;;;16.90;75.49;99497.53;4455303;32;34027;-80
2022/09/04 00:40:34;;;;;;;0.80;0.52;;;;;;;16.99;74.79;99502.47;4470375;32;35217;-80
2022/09/04 00:43:23;;;;;;;0.22;0.22;;;;;;;16.91;75.31;99496.63;4469758;32;34509;-83
2022/09/04 00:46:28;;;;;;;0.30;0.30;;;;;;;16.77;76.58;99502.31;4470865;32;34555;-81
2022/09/04 00:49:31;;;;;;;1.17;1.08;;;;;;;16.92;75.85;99499.19;4469349;32;34030;-80
2022/09/04 00:51:59;;;;;;;0.40;0.40;;;;;;;16.84;75.97;99503.84;4468967;32;34992;-80
2022/09/04 00:54:39;;;;;;;1.67;1.58;;;;;;;17.08;74.43;99502.12;4470535;32;34579;-80
2022/09/04 00:57:41;;;;;;;0.75;0.75;;;;;;;16.85;75.95;99508.19;4469779;32;34239;-80
2022/09/04 01:00:15;;;;;;;0.57;0.57;;;;;;;16.91;76.04;99501.88;4470638;32;33507;-80
2022/09/04 01:03:20;;;;;;;0.80;0.40;;;;;;;17.04;75.48;99501.38;4469677;32;36005;-80
2022/09/04 01:05:55;;;;;;;0.40;0.40;;;;;;;16.23;78.91;99501.41;4470492;32;34481;-81
2022/09/04 01:08:54;;;;;;;0.93;0.93;;;;;;;17.01;76.48;99505.91;4469144;32;34160;-80
2022/09/04 01:11:40;;;;;;;0.30;0.30;;;;;;;17.14;75.99;99499.31;4470348;32;33904;-81
2022/09/04 01:14:24;;;;;;;3.00;0.75;;;;;;;17.07;76.52;99500.44;4469514;32;35102;-80
2022/09/04 01:16:58;;;;;;;0.55;0.55;;;;;;;17.14;76.21;99499.31;4456632;32;34459;-81
2022/09/04 01:19:41;;;;;;;1.10;1.08;;;;;;;16.99;76.67;99491.94;4470885;32;33839;-80
2022/09/04 01:22:32;;;;;;;0.65;0.65;;;;;;;16.49;79.73;99501.44;4477924;32;34769;-80
2022/09/04 01:25:07;;;;;;;0.22;0.22;;;;;;;16.96;77.21;99511.34;4455691;32;35833;-80
2022/09/04 01:27:48;;;;;;;0.80;0.80;;;;;;;17.18;75.70;99515.84;4469544;32;34473;-80
2022/09/04 01:30:18;;;;;;;0.75;0.52;;;;;;;16.53;78.45;99522.38;4456512;32;33573;-80
2022/09/04 01:33:06;;;;;;;1.58;1.50;;;;;;;16.31;80.10;99525.69;4442898;32;33084;-80
2022/09/04 01:35:56;;;;;;;0.65;0.65;;;;;;;15.87;83.98;99522.66;4456322;32;35107;-81
2022/09/04 01:38:27;;;;;;;1.15;1.05;;;;;;;17.13;77.60;99516.00;4468687;32;34430;-81
2022/09/04 01:41:01;;;;;;;0.50;0.50;;;;;;;16.31;80.35;99528.31;4469190;32;33658;-81
2022/09/04 01:43:30;;;;;;;0.70;0.70;;;;;;;16.26;83.71;99533.72;4469408;32;34033;-80
2022/09/04 01:46:10;;;;;;;0.50;0.43;;;;;;;16.76;79.51;99540.03;4456355;32;35029;-80
2022/09/04 01:48:50;;;;;;;1.17;1.00;;;;;;;16.68;79.41;99529.78;4469512;32;34434;-80
2022/09/04 01:51:28;;;;;;;0.43;0.35;;;;;;;17.27;76.09;99533.94;4456169;32;34136;-80
2022/09/04 01:54:09;;;;;;;1.98;1.35;;;;;;;17.37;75.28;99530.06;4469210;32;34055;-80
2022/09/04 01:56:39;;;;;;;0.73;0.70;;;;;;;16.85;77.01;99526.59;4442436;32;35349;-80
2022/09/04 01:59:18;;;;;;;1.05;1.00;;;;;;;16.41;78.84;99529.75;4455563;32;34441;-80
2022/09/04 02:01:53;;;;;;;0.65;0.65;;;;;;;16.44;78.40;99534.03;4468901;32;33530;-81
2022/09/04 02:04:27;;;;;;;0.68;0.68;;;;;;;16.23;79.89;99527.69;4455676;32;33902;-81
2022/09/04 02:07:17;;;;;;;2.75;1.00;;;;;;;16.70;77.48;99533.22;4469060;32;35130;-80
2022/09/04 02:09:53;;;;;;;0.80;0.80;;;;;;;16.52;77.57;99532.03;4461553;32;35043;-79
2022/09/04 02:12:41;;;;;;;0.57;0.57;;;;;;;16.35;78.35;99527.31;4455167;32;33252;-80
2022/09/04 02:15:15;;;;;;;0.50;0.50;;;;;;;16.71;77.29;99529.66;4456050;32;34822;-80
2022/09/04 02:18:01;;;;;;;1.75;1.37;;;;;;;16.64;77.02;99534.28;4455175;32;34983;-80
2022/09/04 02:20:30;;;;;;;0.43;0.43;;;;;;;16.93;75.23;99534.25;4469111;32;34323;-80
2022/09/04 02:23:09;;;;;;;0.70;0.70;;;;;;;16.79;75.53;99537.31;4469184;32;34287;-80
2022/09/04 02:26:03;;;;;;;0.45;0.45;;;;;;;17.13;74.08;99531.78;4469811;32;33933;-80
2022/09/04 02:29:07;;;;;;;0.50;0.50;;;;;;;17.41;72.56;99541.34;4468859;32;35024;-81
2022/09/04 02:31:53;;;;;;;0.85;0.85;;;;;;;17.14;73.87;99532.66;4458427;32;35381;-80
2022/09/04 02:34:45;;;;;;;1.30;1.20;;;;;;;16.83;74.77;99545.06;4454970;32;33703;-81
2022/09/04 02:37:32;;;;;;;1.08;0.93;;;;;;;16.92;75.17;99543.91;4463884;32;34665;-80
2022/09/04 02:40:03;;;;;;;;;;;;;;;16.90;74.69;99544.88;4469676;32;35814;-80
2022/09/04 02:42:42;;;;;;;1.73;1.58;;;;;;;16.92;74.20;99538.63;4454916;32;34695;-80
2022/09/04 02:45:28;;;;;;;0.68;0.60;;;;;;;16.84;74.91;99545.94;4467624;32;33592;-80
2022/09/04 02:48:15;;;;;;;;;;;;;;;17.05;74.35;99544.34;4468255;32;33945;-80
2022/09/04 02:51:12;;;;;;;0.80;0.57;;;;;;;17.02;74.14;99547.09;4469516;32;35266;-81
2022/09/04 02:53:43;;;;;;;;;;;;;;;17.23;73.23;99538.44;4451996;32;35268;-81
2022/09/04 02:56:41;;;;;;;0.25;0.25;;;;;;;17.23;72.94;99548.97;4471055;32;33496;-81
2022/09/04 02:59:31;;;;;;;2.55;1.00;;;;;;;16.88;74.33;99547.53;4459920;32;33713;-81
2022/09/04 03:02:01;;;;;;;0.40;0.40;;;;;;;17.25;73.38;99541.88;4453820;32;35131;-80
2022/09/04 03:04:48;;;;;;;0.45;0.45;;;;;;;17.48;71.75;99542.00;4454674;32;35328;-81
2022/09/04 03:07:23;;;;;;;;;;;;;;;17.10;73.18;99542.44;4455569;32;33564;-81
2022/09/04 03:10:16;;;;;;;1.10;0.98;;;;;;;17.13;72.83;99544.94;4454191;32;34167;-83
2022/09/04 03:13:09;;;;;;;1.10;1.02;;;;;;;17.07;73.49;99532.00;4468259;32;35041;-81
2022/09/04 03:15:53;;;;;;;0.70;0.60;;;;;;;17.23;72.52;99538.44;4444645;32;34919;-80
2022/09/04 03:18:51;;;;;;;2.00;1.35;;;;;;;16.61;74.53;99534.38;4465790;32;34238;-81
2022/09/04 03:21:27;;;;;;;0.85;0.85;;;;;;;17.39;72.11;99538.78;4469380;32;34828;-81
2022/09/04 03:23:59;;;;;;;;;;;;;;;17.46;71.07;99544.69;4456585;32;35004;-81
2022/09/04 03:26:50;;;;;;;1.27;1.17;;;;;;;17.48;71.28;99548.12;4457333;32;34625;-81
2022/09/04 03:29:41;;;;;;;0.73;0.70;;;;;;;17.30;71.69;99554.91;4457099;32;33527;-80
2022/09/04 03:32:37;;;;;;;0.98;0.98;;;;;;;16.90;73.48;99547.50;4457327;32;32867;-82
2022/09/04 03:35:24;;;;;;;0.75;0.75;;;;;;;17.10;72.88;99557.34;4470088;32;34669;-81
2022/09/04 03:38:11;;;;;;;1.08;0.73;;;;;;;17.34;72.27;99553.88;4456427;32;35298;-81
2022/09/04 03:40:41;;;;;;;;;;;;;;;16.97;73.28;99557.75;4457489;32;32808;-81
2022/09/04 03:43:48;;;;;;;0.80;0.80;;;;;;;17.05;72.41;99562.78;4456518;32;34954;-81
2022/09/04 03:46:18;;;;;;;0.43;0.43;;;;;;;17.18;72.42;99565.84;4392162;32;36025;-80
2022/09/04 03:49:13;;;;;;;0.88;0.88;;;;;;;17.38;71.27;99566.03;4457460;32;35148;-81
2022/09/04 03:52:05;;;;;;;0.60;0.60;;;;;;;17.13;72.48;99562.50;4469582;32;34327;-81
2022/09/04 03:54:49;;;;;;;0.62;0.62;;;;;;;17.02;72.50;99565.50;4469932;32;33891;-81
2022/09/04 03:57:39;;;;;;;0.55;0.55;;;;;;;17.04;72.97;99566.31;4443971;32;34952;-80
2022/09/04 04:00:17;;;;;;;0.52;0.52;;;;;;;16.97;72.58;99564.78;4456141;32;35180;-81
2022/09/04 04:03:06;;;;;;;0.73;0.73;;;;;;;16.90;73.31;99565.91;4457577;32;34279;-79
2022/09/04 04:05:51;;;;;;;1.42;1.33;;;;;;;17.11;72.50;99577.50;4469634;32;35006;-80
2022/09/04 04:08:38;;;;;;;1.80;1.20;;;;;;;17.03;72.45;99575.13;4465079;32;35032;-80
2022/09/04 04:11:20;;;;;;;1.75;1.35;;;;;;;17.07;72.03;99576.72;4470820;32;34348;-80
2022/09/04 04:13:59;;;;;;;0.52;0.52;;;;;;;17.00;72.50;99577.84;4455902;32;33414;-80
2022/09/04 04:16:30;;;;;;;0.37;0.37;;;;;;;16.83;73.22;99589.78;4456656;32;34845;-80
2022/09/04 04:19:43;;;;;;;0.88;0.75;;;;;;;16.92;73.54;99590.37;4469842;32;35193;-81
2022/09/04 04:22:29;;;;;;;0.52;0.52;;;;;;;16.72;74.38;99605.00;4409220;32;33671;-81
2022/09/04 04:25:04;;;;;;;0.37;0.37;;;;;;;16.92;73.07;99600.91;4468819;32;33742;-79
2022/09/04 04:28:27;;;;;;;0.60;0.60;;;;;;;16.93;73.21;99608.75;4456571;32;34078;-80
2022/09/04 04:31:06;;;;;;;0.13;0.13;;;;;;;17.38;70.90;99609.88;4385843;32;34929;-80
2022/09/04 04:34:29;;;;;;;3.15;1.37;;;;;;;16.87;72.65;99616.81;4455590;32;34497;-80
2022/09/04 04:37:03;;;;;;;1.20;1.12;;;;;;;16.83;73.54;99612.56;4411927;32;33155;-82
2022/09/04 04:39:36;;;;;;;0.75;0.75;;;;;;;17.51;70.74;99629.63;4455797;32;34568;-81
2022/09/04 04:42:25;;;;;;;0.82;0.82;;;;;;;17.02;72.53;99624.22;4469496;32;35132;-82
2022/09/04 04:48:15;;;;;;;1.05;1.05;;;;;;;16.89;72.61;99637.81;4470418;32;33537;-82
2022/09/04 04:51:04;;;;;;;1.02;1.00;;;;;;;17.05;72.69;99634.66;4470451;32;34747;-82
2022/09/04 04:53:56;;;;;;;0.22;0.22;;;;;;;17.34;72.08;99639.88;4468364;32;34949;-83
2022/09/04 04:56:52;;;;;;;0.62;0.62;;;;;;;17.32;72.45;99641.69;4468992;32;35314;-83
2022/09/04 04:59:33;;;;;;;1.02;0.98;;;;;;;17.30;72.07;99639.12;4462474;32;33020;-83
2022/09/04 05:02:10;;;;;;;0.77;0.77;;;;;;;17.47;72.07;99641.19;4470406;32;33958;-83
2022/09/04 05:04:48;;;;;;;0.40;0.40;;;;;;;17.80;70.49;99649.66;4455853;32;34913;-82
2022/09/04 05:07:37;;;;;;;1.20;1.17;;;;;;;17.56;72.05;99648.75;4470303;32;34814;-81
2022/09/04 05:10:17;;;;;;;1.40;1.15;;;;;;;18.00;69.72;99646.38;4456022;32;34238;-82
2022/09/04 05:13:13;;;;;;;0.95;0.95;;;;;;;17.42;71.35;99649.22;4469771;32;33704;-82
2022/09/04 05:16:07;;;;;;;1.67;1.58;;;;;;;17.49;72.34;99649.87;4470183;32;35079;-83
2022/09/04 05:18:49;;;;;;;0.68;0.68;;;;;;;17.86;71.00;99646.00;4469353;32;33961;-84
2022/09/04 05:21:41;;;;;;;1.73;1.37;;;;;;;17.96;71.25;99650.00;4470251;32;34495;-86
2022/09/04 05:24:25;;;;;;;0.70;0.70;;;;;;;18.14;69.28;99661.69;4469459;32;34663;-85
2022/09/04 05:27:01;;;;;;;1.00;1.00;;;;;;;18.29;68.98;99657.59;4455714;32;35057;-84
2022/09/04 05:29:34;;;;;;;1.10;0.77;;;;;;;17.94;70.60;99662.38;4469231;32;35342;-84
2022/09/04 05:32:15;;;;;;;0.30;0.30;;;;;;;17.99;71.69;99663.06;4470188;32;33499;-85
2022/09/04 05:35:20;;;;;;;2.72;1.42;;;;;;;17.92;71.19;99668.63;4469420;32;34787;-81
2022/09/04 05:38:00;;;;;;;1.27;1.00;;;;;;;17.77;71.29;99669.97;4469790;32;35108;-81
2022/09/04 05:53:03;;;;;;;0.40;0.40;;;;;;;18.90;67.58;99685.19;4472394;32;300758;-83
2022/09/04 05:55:45;;;;;;;0.68;0.60;;;;;;;18.90;67.58;99685.19;4464236;32;33188;-83
2022/09/04 05:58:32;;;;;;;0.75;0.75;;;;;;;17.90;69.80;99689.75;4449015;32;33862;-81
2022/09/04 06:01:45;;;;;;;0.47;0.47;;;;;;;17.68;71.60;99684.31;4449523;32;35258;-80
2022/09/04 06:04:24;;;;;;;0.82;0.82;;;;;;;18.10;70.29;99682.91;4459211;32;34010;-83
2022/09/04 06:06:58;;;;;;;1.65;1.55;;;;;;;17.92;70.47;99673.91;4461075;32;34373;-82
2022/09/04 06:09:33;;;;;;;1.65;1.20;;;;;;;18.02;70.13;99687.59;4450705;32;33907;-81
2022/09/04 06:12:26;;;;;;;0.80;0.75;;;;;;;18.09;69.98;99684.69;4450790;32;34716;-82
2022/09/04 06:15:30;;;;;;;1.30;1.20;;;;;;;18.34;69.33;99687.28;4455751;32;35169;-83
2022/09/04 06:18:16;;;;;;;0.32;0.32;;;;;;;18.32;69.61;99680.37;4450174;32;33483;-83
2022/09/04 06:20:59;;;;;;;0.50;0.50;;;;;;;17.87;71.01;99687.22;4449312;32;33997;-81
2022/09/04 06:23:42;;;;;;;0.50;0.50;;;;;;;18.00;70.82;99685.88;4448920;32;35323;-81
2022/09/04 06:26:23;;;;;;;0.75;0.75;;;;;;;18.48;69.52;99689.41;4450422;32;34220;-81
2022/09/04 06:29:03;;;;;;;0.70;0.70;;;;;;;18.13;70.33;99696.00;4450431;32;33535;-81
2022/09/04 06:31:50;;;;;;;1.65;1.55;;;;;;;18.57;68.93;99696.13;4452629;32;33963;-82
2022/09/04 06:34:27;;;;;;;0.90;0.88;;;;;;;18.74;67.74;99692.81;4465102;32;34694;-82
2022/09/04 06:37:10;;;;;;;1.75;1.12;;;;;;;18.13;70.25;99694.19;4465395;32;34455;-83
2022/09/04 06:39:44;;;;;;;1.20;0.90;;;;;;;18.56;68.42;99692.62;4450517;32;33403;-82
2022/09/04 06:42:22;;;;;;;2.40;1.58;;;;;;;18.14;70.37;99700.31;4449845;32;33909;-83
2022/09/04 06:45:11;;;;;;;1.23;0.85;;;;;;;18.17;70.35;99700.22;4450108;32;34770;-83
2022/09/04 06:47:58;;;;;;;0.50;0.50;;;;;;;18.49;70.03;99700.81;4458312;32;35011;-83
2022/09/04 06:50:29;;;;;;;0.55;0.55;;;;;;;18.33;69.57;99714.56;4457876;32;33643;-81
2022/09/04 06:53:20;;;;;;;0.75;0.55;;;;;;;18.48;68.71;99714.94;4445091;32;33659;-83
2022/09/04 06:56:06;;;;;;;0.37;0.37;;;;;;;18.49;69.95;99716.63;4446460;32;35741;-82
2022/09/04 06:58:57;;;;;;;0.95;0.70;;;;;;;18.36;70.84;99711.81;4442183;32;33331;-84
2022/09/04 07:01:40;;;;;;;0.80;0.80;;;;;;;18.96;67.01;99710.50;4438223;32;33525;-82
2022/09/04 07:04:08;;;;;;;1.42;1.33;;;;;;;19.09;66.53;99720.50;4440633;32;33893;-82
2022/09/04 07:06:57;;;;;;;0.77;0.77;;;;;;;19.02;67.22;99726.94;4440164;32;35809;-82
2022/09/04 07:09:32;;;;;;;1.45;1.08;;;;;;;18.89;67.61;99723.06;4439614;32;35096;-81
2022/09/04 07:11:59;;;;;;;0.93;0.82;;;;;;;19.05;68.17;99716.25;4438650;32;34236;-82
2022/09/04 07:14:37;;;;;;;0.90;0.85;;;;;;;19.63;65.06;99714.81;4439402;32;33824;-82
2022/09/04 07:17:27;;;;;;;0.47;0.47;;;;;;;19.19;68.81;99728.06;4439758;32;34739;-81
2022/09/04 07:20:14;;;;;;;0.30;0.30;;;;;;;19.27;67.80;99721.56;4439574;32;35153;-81
2022/09/04 07:22:45;;;;;;;;;;;;;;;19.34;66.37;99716.84;4442018;32;33282;-80
2022/09/04 07:25:28;;;;;;;0.47;0.43;;;;;;;19.23;66.38;99719.94;4447271;32;34247;-80
2022/09/04 07:27:59;;;;;;;0.20;0.20;;;;;;;19.98;65.84;99718.63;4439256;32;34970;-82
2022/09/04 07:30:33;;;;;;;0.95;0.90;;;;;;;20.22;63.71;99718.47;4439795;32;35192;-83
2022/09/04 07:33:26;;;;;;;0.57;0.50;;;;;;;19.72;63.91;99730.28;4438506;32;33309;-82
2022/09/04 07:36:18;;;;;;;0.85;0.82;;;;;;;20.03;62.75;99731.63;4441036;32;33909;-81
2022/09/04 07:38:53;;;;;;;0.98;0.98;;;;;;;20.09;61.66;99731.38;4444041;32;35074;-81
2022/09/04 07:41:41;;;;;;;0.57;0.57;;;;;;;20.12;61.90;99733.87;4425635;32;32830;-83
2022/09/04 07:44:39;;;;;;;0.50;0.50;;;;;;;19.65;63.48;99736.75;4439141;32;33151;-81
2022/09/04 07:47:16;;;;;;;0.30;0.30;;;;;;;19.82;63.60;99739.56;4428086;32;34000;-82
2022/09/04 07:50:35;;;;;;;0.77;0.65;;;;;;;19.41;65.67;99733.31;4438268;32;33174;-82
2022/09/04 07:53:53;;;;;;;0.55;0.55;;;;;;;20.05;63.44;99735.09;4443507;32;35196;-83
2022/09/04 07:56:35;;;;;;;2.20;2.00;;;;;;;19.86;64.44;99735.84;4455077;32;33288;-83
2022/09/04 07:59:27;;;;;;;0.80;0.80;;;;;;;19.97;63.03;99745.12;4444850;32;34903;-82
2022/09/04 08:02:58;;;;;;;1.12;0.50;;;;;;;20.05;61.64;99756.22;4439746;32;35995;-84
2022/09/04 08:06:58;;;;;;;0.62;0.62;;;;;;;20.08;62.59;99761.38;4438116;32;32957;-80
2022/09/04 08:10:31;;;;;;;1.90;1.58;;;;;;;19.77;65.02;99767.97;4417800;32;33291;-82
2022/09/04 08:13:40;;;;;;;0.85;0.82;;;;;;;20.49;63.22;99777.22;4452678;32;33746;-83
2022/09/04 08:16:29;;;;;;;0.85;0.85;;;;;;;21.21;59.32;99775.69;4454940;32;34770;-83
2022/09/04 08:19:13;;;;;;;0.70;0.70;;;;;;;20.21;63.51;99777.56;4453682;32;34248;-83
2022/09/04 08:21:44;;;;;;;0.40;0.40;;;;;;;21.01;60.57;99779.28;4452454;32;33375;-84
2022/09/04 08:24:20;;;;;;;0.65;0.65;;;;;;;21.27;60.16;99775.41;4435456;32;33808;-83
2022/09/04 08:27:18;;;;;;;0.85;0.85;;;;;;;21.23;60.59;99773.84;4454778;32;35065;-83
2022/09/04 08:30:06;;;;;;;1.12;1.08;;;;;;;21.00;60.75;99780.22;4439830;32;35118;-83
2022/09/04 08:33:02;;;;;;;0.65;0.65;;;;;;;20.92;61.08;99780.56;4438937;32;32170;-84
2022/09/04 08:35:39;;;;;;;0.30;0.30;;;;;;;20.79;62.03;99779.44;4441325;32;34010;-83
2022/09/04 08:38:30;;;;;;;1.25;1.17;;;;;;;20.72;61.26;99780.63;4438326;32;35129;-84
2022/09/04 08:41:26;;;;;;;0.20;0.20;;;;;;;20.71;61.09;99779.78;4438223;32;35225;-83
2022/09/04 08:43:57;;;;;;;0.75;0.75;;;;;;;20.52;61.78;99786.78;4442233;32;33356;-83
2022/09/04 08:46:47;;;;;;;1.12;1.02;;;;;;;21.05;61.10;99783.50;4447224;32;33794;-82
2022/09/04 08:49:32;;;;;;;0.80;0.80;;;;;;;20.78;60.55;99783.00;4445698;32;34317;-83
2022/09/04 08:52:11;;;;;;;1.40;1.30;;;;;;;20.76;61.25;99784.88;4445645;32;34823;-84
2022/09/04 08:54:56;;;;;;;1.65;1.55;;;;;;;21.19;59.80;99782.84;4438018;32;33547;-83
2022/09/04 08:57:55;;;;;;;0.80;0.80;;;;;;;21.00;59.97;99780.22;4441916;32;34131;-83
2022/09/04 09:00:34;;;;;;;0.50;0.50;;;;;;;20.72;59.37;99783.28;4444016;32;35676;-83
2022/09/04 09:03:42;;;;;;;0.82;0.82;;;;;;;20.90;60.90;99778.94;4445537;32;34248;-83
2022/09/04 09:06:19;;;;;;;0.75;0.70;;;;;;;20.64;62.01;99791.56;4446720;32;34275;-81
2022/09/04 09:09:26;;;;;;;0.35;0.35;;;;;;;21.51;58.34;99789.31;4445022;32;33805;-83
2022/09/04 09:12:30;;;;;;;1.90;1.55;;;;;;;21.49;58.38;99790.28;4445848;32;35956;-83
2022/09/04 09:15:46;;;;;;;0.75;0.75;;;;;;;21.11;61.16;99787.69;4444596;32;34288;-83
2022/09/04 09:18:36;;;;;;;1.02;1.00;;;;;;;21.38;57.96;99794.28;4445637;32;34243;-83
2022/09/04 09:21:10;;;;;;;0.35;0.35;;;;;;;21.14;60.81;99796.34;4445767;32;34782;-84
2022/09/04 09:23:45;;;;;;;0.35;0.35;;;;;;;21.38;59.08;99796.94;4442677;32;34066;-84
2022/09/04 09:26:17;;;;;;;1.27;1.15;;;;;;;21.38;58.20;99794.28;4443154;32;34267;-84
2022/09/04 09:29:08;;;;;;;0.40;0.40;;;;;;;21.71;58.77;99798.91;4449706;32;33412;-83
2022/09/04 09:32:01;;;;;;;0.52;0.52;;;;;;;21.70;57.71;99806.94;4448945;32;34768;-83
2022/09/04 09:34:45;;;;;;;0.85;0.80;;;;;;;21.37;58.40;99803.19;4437096;32;35816;-83
2022/09/04 09:37:28;;;;;;;0.77;0.73;;;;;;;21.62;57.95;99803.78;4438708;32;34488;-84
2022/09/04 09:40:21;;;;;;;1.33;0.70;;;;;;;22.02;57.60;99804.47;4446741;32;33511;-83
2022/09/04 09:43:11;;;;;;;0.50;0.50;;;;;;;21.71;57.55;99806.00;4439782;32;34972;-83
2022/09/04 09:45:43;;;;;;;0.70;0.70;;;;;;;21.18;58.36;99807.62;4438610;32;35929;-84
2022/09/04 09:48:49;;;;;;;0.80;0.77;;;;;;;20.81;59.17;99798.75;4440318;32;34325;-83
2022/09/04 09:51:44;;;;;;;1.27;0.70;;;;;;;21.16;59.75;99809.47;4451146;32;34195;-84
2022/09/04 09:54:39;;;;;;;0.98;0.95;;;;;;;21.83;57.21;99804.53;4445873;32;34668;-84
2022/09/04 09:57:37;;;;;;;0.43;0.43;;;;;;;22.04;58.57;99802.59;4444459;32;34926;-84
2022/09/04 10:00:15;;;;;;;1.15;0.75;;;;;;;21.66;57.37;99805.38;4443432;32;34386;-84
2022/09/04 10:03:18;;;;;;;0.45;0.45;;;;;;;21.34;56.85;99800.66;4431608;32;33397;-84
2022/09/04 10:06:08;;;;;;;1.12;1.05;;;;;;;21.41;57.49;99798.59;4445394;32;34022;-83
2022/09/04 10:09:01;;;;;;;1.60;1.50;;;;;;;20.84;60.09;99801.22;4446001;32;35141;-84
2022/09/04 10:12:11;;;;;;;0.82;0.82;;;;;;;20.62;60.06;99807.50;4446184;32;35060;-80
2022/09/04 10:14:45;;;;;;;1.20;1.10;;;;;;;20.64;60.54;99810.94;4429404;32;32844;-85
2022/09/04 10:17:24;;;;;;;0.50;0.50;;;;;;;20.95;59.08;99800.78;4444105;32;33809;-81
2022/09/04 10:20:14;;;;;;;0.45;0.45;;;;;;;20.96;59.59;99802.47;4442634;32;35101;-81
2022/09/04 10:23:18;;;;;;;0.28;0.28;;;;;;;21.40;59.78;99807.47;4444729;32;35239;-81
2022/09/04 10:25:56;;;;;;;0.50;0.50;;;;;;;20.91;59.87;99810.66;4438229;32;33540;-81
2022/09/04 10:28:46;;;;;;;0.60;0.60;;;;;;;20.78;60.76;99809.47;4439660;32;34046;-81
2022/09/04 10:31:32;;;;;;;7.47;1.50;;;;;;;20.75;60.90;99807.81;4441040;32;34702;-80
2022/09/04 10:34:03;;;;;;;0.93;0.50;;;;;;;20.99;61.74;99803.19;4439701;32;34476;-81
2022/09/04 10:37:05;;;;;;;0.45;0.25;;;;;;;21.32;64.71;99807.00;4440500;32;34344;-81
2022/09/04 10:42:50;;;;;;;1.90;1.60;;;;;;;19.82;71.36;99812.72;4439902;32;35072;-78
2022/09/04 10:45:37;;;;;;;1.95;1.00;;;;;;;20.74;67.01;99818.50;4439711;32;34532;-80
2022/09/04 10:48:23;;;;;;;0.30;0.30;;;;;;;20.52;70.92;99824.69;4438934;32;34121;-79
2022/09/04 10:51:21;;;;;;;1.23;0.95;;;;;;;19.80;74.39;99823.34;4438809;32;33878;-80
2022/09/04 10:54:28;;;;;;;1.50;1.35;;;;;;;19.55;76.94;99822.56;4419103;32;35198;-81
2022/09/04 10:56:56;;;;;;;0.52;0.52;;;;;;;21.34;67.67;99821.88;4431566;32;34344;-80
2022/09/04 10:59:46;;;;;;;1.35;1.20;;;;;;;20.90;69.90;99826.59;4450612;32;34191;-80
2022/09/04 11:02:41;;;;;;;1.73;0.85;;;;;;;20.55;69.23;99824.56;4446752;32;33919;-80
2022/09/04 11:05:35;;;;;;;0.85;0.85;;;;;;;20.50;74.98;99818.59;4446259;32;34798;-80
2022/09/04 11:08:17;;;;;;;0.73;0.73;;;;;;;20.42;72.61;99818.94;4446676;32;33632;-80
2022/09/04 11:10:46;;;;;;;1.08;0.98;;;;;;;20.83;69.38;99818.06;4434623;32;32014;-81
2022/09/04 11:13:39;;;;;;;1.20;0.90;;;;;;;21.42;67.04;99825.94;4446146;32;34636;-81
2022/09/04 11:16:55;;;;;;;3.45;0.82;;;;;;;21.24;66.85;99820.56;4447401;32;35920;-81
2022/09/04 11:19:42;;;;;;;1.00;1.00;;;;;;;21.48;66.36;99815.09;4394023;32;34279;-80
2022/09/04 11:22:19;;;;;;;1.10;1.00;;;;;;;21.96;62.03;99822.41;4399628;32;33411;-80
2022/09/04 11:25:12;;;;;;;0.88;0.65;;;;;;;21.85;61.25;99814.12;4429280;32;34428;-80
2022/09/04 11:28:19;;;;;;;0.62;0.62;;;;;;;22.39;61.05;99824.69;4442230;32;35277;-80
2022/09/04 11:31:19;;;;;;;0.40;0.40;;;;;;;21.87;63.81;99822.88;4444833;32;35237;-80
2022/09/04 11:34:00;;;;;;;1.50;1.23;;;;;;;21.55;63.10;99821.81;4438428;32;34137;-81
2022/09/04 11:37:09;;;;;;;1.00;0.98;;;;;;;22.10;59.74;99828.81;4439456;32;34613;-80
2022/09/04 11:39:46;;;;;;;1.90;1.65;;;;;;;22.46;59.85;99831.38;4445232;32;35135;-80
2022/09/04 11:42:20;;;;;;;1.02;0.93;;;;;;;22.02;61.58;99828.34;4444360;32;34477;-81
2022/09/04 11:45:04;;;;;;;6.70;1.30;;;;;;;22.03;60.40;99825.63;4444517;32;33572;-80
2022/09/04 11:47:55;;;;;;;1.67;1.52;;;;;;;21.50;61.65;99815.88;4453665;32;33292;-84
2022/09/04 11:50:57;;;;;;;0.60;0.60;;;;;;;21.92;61.29;99814.69;4442698;32;35051;-77
2022/09/04 11:53:41;;;;;;;1.85;0.90;;;;;;;22.74;58.50;99819.31;4439456;32;34358;-80
2022/09/04 11:56:31;;;;;;;0.73;0.73;;;;;;;22.89;59.18;99810.53;4448457;32;33531;-80
2022/09/04 11:59:22;;;;;;;1.83;0.82;;;;;;;22.89;57.30;99805.22;4449444;32;34037;-80
2022/09/04 12:02:22;;;;;;;0.65;0.65;;;;;;;23.45;56.56;99804.84;4438641;32;35152;-80
2022/09/04 12:05:37;;;;;;;1.73;1.62;;;;;;;23.36;58.27;99795.59;4438874;32;34523;-80
2022/09/04 12:08:21;;;;;;;1.40;1.25;;;;;;;24.13;57.09;99791.16;4438037;32;31849;-80
2022/09/04 12:10:58;;;;;;;0.50;0.43;;;;;;;23.63;56.30;99787.84;4438664;32;33942;-81
2022/09/04 12:14:14;;;;;;;0.70;0.70;;;;;;;23.39;56.88;99789.25;4438593;32;35954;-80
2022/09/04 12:16:51;;;;;;;0.52;0.52;;;;;;;23.14;55.73;99795.94;4390288;32;35117;-80
2022/09/04 12:19:47;;;;;;;0.60;0.50;;;;;;;22.93;55.06;99794.44;4392532;32;33728;-80
2022/09/04 12:22:35;;;;;;;0.47;0.47;;;;;;;23.00;54.77;99793.16;4430952;32;33939;-80
2022/09/04 12:25:32;;;;;;;1.35;1.25;;;;;;;23.73;53.22;99789.97;4432269;32;34808;-80
2022/09/04 12:28:36;;;;;;;0.70;0.70;;;;;;;23.93;53.23;99784.38;4441247;32;34355;-80
2022/09/04 12:31:22;;;;;;;0.57;0.57;;;;;;;23.24;54.75;99785.66;4438905;32;33432;-80
2022/09/04 12:34:08;;;;;;;0.70;0.70;;;;;;;23.41;51.25;99793.53;4438160;32;34143;-80
2022/09/04 12:36:57;;;;;;;0.52;0.52;;;;;;;23.66;52.46;99793.00;4439322;32;34949;-81
2022/09/04 12:39:41;;;;;;;0.70;0.70;;;;;;;23.90;52.46;99789.88;4437475;32;34278;-80
2022/09/04 12:42:15;;;;;;;0.65;0.65;;;;;;;23.47;50.64;99789.66;4439489;32;33402;-80
2022/09/04 12:45:04;;;;;;;1.25;1.15;;;;;;;23.85;51.19;99779.50;4442070;32;33226;-81
2022/09/04 12:47:40;;;;;;;0.73;0.70;;;;;;;25.19;48.54;99782.94;4454258;32;34997;-81
2022/09/04 12:50:14;;;;;;;0.88;0.88;;;;;;;25.45;48.73;99776.78;4444948;32;34377;-81
2022/09/04 12:53:08;;;;;;;0.88;0.88;;;;;;;25.10;49.02;99782.56;4446759;32;33412;-80
2022/09/04 12:56:06;;;;;;;0.62;0.62;;;;;;;24.51;51.12;99781.81;4443488;32;34990;-81
2022/09/04 12:59:00;;;;;;;1.08;0.85;;;;;;;25.15;49.12;99777.78;4429850;32;34894;-81
2022/09/04 13:01:58;;;;;;;0.85;0.77;;;;;;;24.86;48.67;99768.97;4447048;32;34457;-81
2022/09/04 13:04:31;;;;;;;;;;;;;;;25.30;47.49;99767.13;4447025;32;33367;-81
2022/09/04 13:07:26;;;;;;;1.58;1.48;;;;;;;25.91;45.76;99775.53;4445846;32;34082;-81
2022/09/04 13:10:14;;;;;;;1.30;1.15;;;;;;;25.16;45.60;99763.50;4439831;32;35969;-81
2022/09/04 13:13:07;;;;;;;0.88;0.88;;;;;;;25.57;46.92;99763.59;4445205;32;34523;-81
2022/09/04 13:16:01;;;;;;;0.73;0.73;;;;;;;24.79;46.39;99759.66;4444829;32;33075;-79
2022/09/04 13:19:10;;;;;;;0.85;0.85;;;;;;;24.41;46.37;99761.06;4443805;32;34800;-81
2022/09/04 13:21:59;;;;;;;0.37;0.37;;;;;;;25.58;43.35;99754.66;4445767;32;35131;-80
2022/09/04 13:24:41;;;;;;;0.40;0.40;;;;;;;24.67;47.16;99752.44;4446013;32;34472;-81
2022/09/04 13:27:27;;;;;;;0.50;0.50;;;;;;;24.95;47.54;99746.22;4445843;32;34497;-81